Terminal Aerodrome Forecast
Issued by NWS

Home | Current Version | Previous Version | Text Only | Print | Product List | Glossary On
Versions: 1 2 3 4 5 6 7 8 9 10 11 12 13 14 15 16 17
000
FTUS42 KGSP 230816 AAA
TAFHKY
TAF AMD
KHKY 230816Z 2308/2406 00000KT 1/4SM FG FEW001 OVC040
      TEMPO 2310/2314 1/2SM FG OVC003
     FM231400 00000KT 3SM BR OVC010
     FM231600 17002KT P6SM BKN050
     FM232200 17004KT P6SM SCT080=

USA.gov is the U.S. government's official web portal to all federal, state and local government web resources and services.